NOO76GF TXKF-EGPK
Flight info
| Callsign | NOO76GF |
|---|---|
| Flight time | 6h 34m |
| Altitude | 37000 |
| Route | SOMRR1 BALOO DCT 40N060W DCT JEBBY DCT LOMPI/N0481F370 DCT JOOPY/M082F390 DCT 49N050W 51N040W 53N030W 54N020W DCT DOGAL DCT BEXET/N0463F390 DCT NIPIT DCT MAC DCT TRN |
| Aircraft | B77W/H-SDE1E2E3FGHIJ2J3J4J5M1RWXY/LB1D1 |
Departure
| Time | 2026-04-24 12:54 |
|---|---|
| Airport | L.F. Wade International Airport (TXKF) |
Arrival
| Time | 2026-04-24 19:28 |
|---|---|
| Airport | Glasgow Prestwick Airport (EGPK) |
| Time | Latitude | Longitude | Altitude | Speed | Heading |
|---|---|---|---|---|---|
| 2026-04-24 11:33 | 32.36224 | -64.70281 | 30 ft | 0 kts | 247° |
| 2026-04-24 12:33 | 32.36224 | -64.70282 | 30 ft | 0 kts | 247° |
| 2026-04-24 12:33 | 32.36225 | -64.70278 | 30 ft | 1 kts | 247° |
| 2026-04-24 12:34 | 32.36234 | -64.70257 | 30 ft | 3 kts | 247° |
| 2026-04-24 12:34 | 32.36243 | -64.70228 | 30 ft | 3 kts | 248° |
| 2026-04-24 12:34 | 32.36248 | -64.70207 | 30 ft | 1 kts | 279° |
| 2026-04-24 12:34 | 32.36241 | -64.70188 | 31 ft | 3 kts | 307° |
| 2026-04-24 12:35 | 32.36225 | -64.70172 | 31 ft | 2 kts | 334° |
| 2026-04-24 12:35 | 32.36209 | -64.70164 | 31 ft | 0 kts | 338° |
| 2026-04-24 12:42 | 32.36212 | -64.70166 | 31 ft | 2 kts | 338° |
| 2026-04-24 12:42 | 32.36243 | -64.70176 | 31 ft | 4 kts | 7° |
| 2026-04-24 12:42 | 32.36274 | -64.70142 | 31 ft | 7 kts | 62° |
| 2026-04-24 12:42 | 32.36299 | -64.70072 | 31 ft | 10 kts | 66° |
| 2026-04-24 12:43 | 32.36328 | -64.69992 | 31 ft | 11 kts | 67° |
| 2026-04-24 12:43 | 32.36363 | -64.69892 | 30 ft | 16 kts | 67° |
| 2026-04-24 12:43 | 32.36409 | -64.69762 | 29 ft | 17 kts | 67° |
| 2026-04-24 12:43 | 32.36454 | -64.69636 | 28 ft | 16 kts | 67° |
| 2026-04-24 12:44 | 32.36496 | -64.69518 | 28 ft | 14 kts | 67° |
| 2026-04-24 12:44 | 32.36533 | -64.69413 | 28 ft | 13 kts | 67° |
| 2026-04-24 12:44 | 32.36566 | -64.69320 | 29 ft | 11 kts | 67° |
| 2026-04-24 12:44 | 32.36602 | -64.69222 | 29 ft | 13 kts | 67° |
| 2026-04-24 12:45 | 32.36641 | -64.69112 | 30 ft | 14 kts | 67° |
| 2026-04-24 12:45 | 32.36678 | -64.69006 | 30 ft | 13 kts | 68° |
| 2026-04-24 12:45 | 32.36710 | -64.68916 | 31 ft | 8 kts | 67° |
| 2026-04-24 12:45 | 32.36716 | -64.68854 | 31 ft | 7 kts | 101° |
| 2026-04-24 12:46 | 32.36705 | -64.68788 | 31 ft | 9 kts | 101° |
| 2026-04-24 12:46 | 32.36690 | -64.68700 | 31 ft | 12 kts | 102° |
| 2026-04-24 12:46 | 32.36670 | -64.68588 | 31 ft | 15 kts | 101° |
| 2026-04-24 12:46 | 32.36649 | -64.68464 | 31 ft | 14 kts | 101° |
| 2026-04-24 12:47 | 32.36623 | -64.68314 | 31 ft | 12 kts | 100° |
| 2026-04-24 12:47 | 32.36612 | -64.68249 | 32 ft | 11 kts | 101° |
| 2026-04-24 12:47 | 32.36593 | -64.68143 | 34 ft | 13 kts | 101° |
| 2026-04-24 12:47 | 32.36577 | -64.68049 | 35 ft | 10 kts | 101° |
| 2026-04-24 12:48 | 32.36561 | -64.67954 | 37 ft | 13 kts | 101° |
| 2026-04-24 12:48 | 32.36540 | -64.67834 | 37 ft | 15 kts | 101° |
| 2026-04-24 12:48 | 32.36520 | -64.67718 | 38 ft | 13 kts | 101° |
| 2026-04-24 12:48 | 32.36502 | -64.67612 | 37 ft | 12 kts | 101° |
| 2026-04-24 12:49 | 32.36484 | -64.67508 | 36 ft | 12 kts | 101° |
| 2026-04-24 12:49 | 32.36466 | -64.67403 | 35 ft | 13 kts | 101° |
| 2026-04-24 12:49 | 32.36446 | -64.67291 | 33 ft | 14 kts | 101° |
| 2026-04-24 12:49 | 32.36427 | -64.67178 | 32 ft | 13 kts | 101° |
| 2026-04-24 12:50 | 32.36408 | -64.67066 | 31 ft | 13 kts | 101° |
| 2026-04-24 12:50 | 32.36390 | -64.66962 | 31 ft | 12 kts | 101° |
| 2026-04-24 12:50 | 32.36373 | -64.66866 | 31 ft | 11 kts | 101° |
| 2026-04-24 12:50 | 32.36353 | -64.66749 | 32 ft | 14 kts | 101° |
| 2026-04-24 12:51 | 32.36333 | -64.66634 | 32 ft | 13 kts | 101° |
| 2026-04-24 12:51 | 32.36315 | -64.66535 | 33 ft | 11 kts | 101° |
| 2026-04-24 12:51 | 32.36296 | -64.66453 | 34 ft | 9 kts | 112° |
| 2026-04-24 12:51 | 32.36272 | -64.66386 | 34 ft | 7 kts | 112° |
| 2026-04-24 12:52 | 32.36249 | -64.66344 | 34 ft | 6 kts | 142° |
| 2026-04-24 12:52 | 32.36197 | -64.66335 | 32 ft | 8 kts | 186° |
| 2026-04-24 12:52 | 32.36150 | -64.66363 | 30 ft | 5 kts | 264° |
| 2026-04-24 12:52 | 32.36150 | -64.66390 | 29 ft | 3 kts | 280° |
| 2026-04-24 12:53 | 32.36151 | -64.66393 | 29 ft | 0 kts | 280° |
| 2026-04-24 12:53 | 32.36156 | -64.66431 | 28 ft | 23 kts | 281° |
| 2026-04-24 12:53 | 32.36241 | -64.66918 | 28 ft | 95 kts | 281° |
| 2026-04-24 12:54 | 32.36414 | -64.67928 | 34 ft | 154 kts | 281° |
| 2026-04-24 12:54 | 32.36651 | -64.69294 | 450 ft | 175 kts | 279° |
| 2026-04-24 12:54 | 32.36855 | -64.70654 | 1241 ft | 174 kts | 279° |
| 2026-04-24 12:54 | 32.37074 | -64.72031 | 1896 ft | 172 kts | 280° |
| 2026-04-24 12:55 | 32.37309 | -64.73474 | 2262 ft | 186 kts | 281° |
| 2026-04-24 12:55 | 32.37580 | -64.75025 | 2640 ft | 203 kts | 282° |
| 2026-04-24 12:55 | 32.37886 | -64.76719 | 3083 ft | 219 kts | 283° |
| 2026-04-24 12:55 | 32.38515 | -64.78423 | 3506 ft | 237 kts | 304° |
| 2026-04-24 12:56 | 32.39762 | -64.79745 | 4081 ft | 250 kts | 329° |
| 2026-04-24 12:56 | 32.41450 | -64.80307 | 4813 ft | 260 kts | 355° |
| 2026-04-24 12:56 | 32.43239 | -64.80035 | 5573 ft | 266 kts | 8° |
| 2026-04-24 12:56 | 32.45045 | -64.79558 | 6372 ft | 268 kts | 8° |
| 2026-04-24 12:57 | 32.46867 | -64.79106 | 7131 ft | 271 kts | 7° |
| 2026-04-24 12:57 | 32.48744 | -64.78666 | 7845 ft | 274 kts | 6° |
| 2026-04-24 12:57 | 32.50620 | -64.78233 | 8566 ft | 277 kts | 6° |
| 2026-04-24 12:57 | 32.52487 | -64.77676 | 9226 ft | 286 kts | 20° |
| 2026-04-24 12:58 | 32.54147 | -64.76303 | 9872 ft | 298 kts | 40° |
| 2026-04-24 12:58 | 32.55543 | -64.74479 | 10390 ft | 310 kts | 45° |
| 2026-04-24 12:58 | 32.56986 | -64.72444 | 10730 ft | 327 kts | 46° |
| 2026-04-24 12:58 | 32.58465 | -64.70355 | 11104 ft | 344 kts | 46° |
| 2026-04-24 12:59 | 32.60064 | -64.68110 | 11494 ft | 360 kts | 46° |
| 2026-04-24 12:59 | 32.61694 | -64.65826 | 11916 ft | 376 kts | 46° |
| 2026-04-24 12:59 | 32.63435 | -64.63387 | 12027 ft | 396 kts | 46° |
| 2026-04-24 12:59 | 32.65230 | -64.60868 | 12696 ft | 403 kts | 46° |
| 2026-04-24 13:00 | 32.67033 | -64.58335 | 13690 ft | 402 kts | 46° |
| 2026-04-24 13:00 | 32.68834 | -64.55804 | 14481 ft | 408 kts | 46° |
| 2026-04-24 13:00 | 32.70672 | -64.53221 | 15216 ft | 415 kts | 46° |
| 2026-04-24 13:00 | 32.72562 | -64.50566 | 16017 ft | 421 kts | 45° |
| 2026-04-24 13:01 | 32.74480 | -64.47938 | 16814 ft | 425 kts | 45° |
| 2026-04-24 13:01 | 32.76425 | -64.45287 | 17579 ft | 431 kts | 44° |
| 2026-04-24 13:01 | 32.78390 | -64.42605 | 18332 ft | 436 kts | 44° |
| 2026-04-24 13:01 | 32.80382 | -64.39883 | 19116 ft | 440 kts | 44° |
| 2026-04-24 13:02 | 32.82395 | -64.37130 | 19821 ft | 446 kts | 44° |
| 2026-04-24 13:02 | 32.84438 | -64.34333 | 20516 ft | 451 kts | 45° |
| 2026-04-24 13:02 | 32.86481 | -64.31531 | 21193 ft | 456 kts | 45° |
| 2026-04-24 13:02 | 32.88567 | -64.28669 | 21844 ft | 461 kts | 45° |
| 2026-04-24 13:03 | 32.90692 | -64.25751 | 22476 ft | 467 kts | 45° |
| 2026-04-24 13:03 | 32.92813 | -64.22834 | 23145 ft | 471 kts | 45° |
| 2026-04-24 13:03 | 32.94978 | -64.19856 | 23780 ft | 476 kts | 45° |
| 2026-04-24 13:03 | 32.97149 | -64.16867 | 24359 ft | 481 kts | 45° |
| 2026-04-24 13:04 | 32.99330 | -64.13860 | 24903 ft | 487 kts | 45° |
| 2026-04-24 13:04 | 33.01546 | -64.10805 | 25493 ft | 491 kts | 45° |
| 2026-04-24 13:04 | 33.03778 | -64.07724 | 26043 ft | 496 kts | 44° |
| 2026-04-24 13:04 | 33.06034 | -64.04606 | 26598 ft | 501 kts | 44° |
| 2026-04-24 13:05 | 33.08324 | -64.01440 | 27134 ft | 505 kts | 44° |
| 2026-04-24 13:05 | 33.10633 | -63.98244 | 27641 ft | 511 kts | 44° |
| 2026-04-24 13:05 | 33.12942 | -63.95044 | 28162 ft | 515 kts | 44° |
| 2026-04-24 13:05 | 33.15277 | -63.91805 | 28748 ft | 518 kts | 44° |
| 2026-04-24 13:06 | 33.17610 | -63.88566 | 29343 ft | 520 kts | 44° |
| 2026-04-24 13:06 | 33.19971 | -63.85284 | 30038 ft | 519 kts | 43° |
| 2026-04-24 13:06 | 33.22324 | -63.82010 | 30797 ft | 517 kts | 43° |
| 2026-04-24 13:06 | 33.24647 | -63.78775 | 31561 ft | 513 kts | 43° |
| 2026-04-24 13:07 | 33.26953 | -63.75561 | 32278 ft | 510 kts | 43° |
| 2026-04-24 13:07 | 33.29245 | -63.72365 | 32929 ft | 507 kts | 43° |
| 2026-04-24 13:07 | 33.31528 | -63.69178 | 33521 ft | 505 kts | 43° |
| 2026-04-24 13:07 | 33.33809 | -63.65992 | 34086 ft | 504 kts | 43° |
| 2026-04-24 13:08 | 33.36067 | -63.62836 | 34618 ft | 503 kts | 43° |
| 2026-04-24 13:08 | 33.38329 | -63.59673 | 34950 ft | 505 kts | 43° |
| 2026-04-24 13:08 | 33.40636 | -63.56444 | 34953 ft | 506 kts | 43° |
| 2026-04-24 13:09 | 33.47427 | -63.46919 | 34957 ft | 505 kts | 43° |
| 2026-04-24 13:09 | 33.51958 | -63.40546 | 34948 ft | 502 kts | 43° |
| 2026-04-24 13:10 | 33.56489 | -63.34168 | 34939 ft | 505 kts | 43° |
| 2026-04-24 13:10 | 33.61028 | -63.27763 | 34920 ft | 504 kts | 43° |
| 2026-04-24 13:11 | 33.65588 | -63.21319 | 34926 ft | 506 kts | 43° |
| 2026-04-24 13:11 | 33.70115 | -63.14908 | 34929 ft | 506 kts | 43° |
| 2026-04-24 13:12 | 33.74671 | -63.08447 | 34934 ft | 508 kts | 43° |
| 2026-04-24 13:12 | 33.79196 | -63.02014 | 34935 ft | 506 kts | 43° |
| 2026-04-24 13:13 | 33.83756 | -62.95525 | 34934 ft | 509 kts | 43° |
| 2026-04-24 13:13 | 33.88305 | -62.89036 | 34933 ft | 507 kts | 43° |
| 2026-04-24 13:14 | 33.92833 | -62.82568 | 34932 ft | 509 kts | 43° |
| 2026-04-24 13:14 | 33.97404 | -62.76026 | 34931 ft | 510 kts | 43° |
| 2026-04-24 13:15 | 34.01947 | -62.69508 | 34934 ft | 507 kts | 42° |
| 2026-04-24 13:15 | 34.06485 | -62.62991 | 34931 ft | 510 kts | 42° |
| 2026-04-24 13:16 | 34.11015 | -62.56470 | 34932 ft | 509 kts | 42° |
| 2026-04-24 13:16 | 34.15576 | -62.49896 | 34934 ft | 512 kts | 42° |
| 2026-04-24 13:17 | 34.20121 | -62.43329 | 34936 ft | 510 kts | 43° |
| 2026-04-24 13:17 | 34.24669 | -62.36749 | 34935 ft | 512 kts | 43° |
| 2026-04-24 13:18 | 34.29245 | -62.30115 | 34915 ft | 515 kts | 43° |
| 2026-04-24 13:18 | 34.33795 | -62.23504 | 34909 ft | 512 kts | 43° |
| 2026-04-24 13:19 | 34.38571 | -62.17160 | 34907 ft | 504 kts | 32° |
| 2026-04-24 13:19 | 34.41315 | -62.14639 | 34907 ft | 492 kts | 24° |
| 2026-04-24 13:19 | 34.44255 | -62.12630 | 34909 ft | 482 kts | 15° |
| 2026-04-24 13:20 | 34.50483 | -62.10016 | 34912 ft | 470 kts | 6° |
| 2026-04-24 13:20 | 34.56751 | -62.07865 | 34899 ft | 468 kts | 6° |
| 2026-04-24 13:21 | 34.63040 | -62.05673 | 34902 ft | 472 kts | 6° |
| 2026-04-24 13:21 | 34.69325 | -62.03455 | 34900 ft | 470 kts | 6° |
| 2026-04-24 13:22 | 34.75607 | -62.01225 | 34895 ft | 470 kts | 6° |
| 2026-04-24 13:22 | 34.81862 | -61.98996 | 34895 ft | 471 kts | 6° |
| 2026-04-24 13:23 | 34.88152 | -61.96746 | 34893 ft | 468 kts | 6° |
| 2026-04-24 13:23 | 34.94432 | -61.94498 | 34890 ft | 472 kts | 6° |
| 2026-04-24 13:24 | 35.00718 | -61.92239 | 34887 ft | 471 kts | 6° |
| 2026-04-24 13:24 | 35.06997 | -61.89981 | 34894 ft | 471 kts | 6° |
| 2026-04-24 13:25 | 35.13305 | -61.87709 | 34902 ft | 473 kts | 6° |
| 2026-04-24 13:25 | 35.19600 | -61.85435 | 34911 ft | 470 kts | 6° |
| 2026-04-24 13:26 | 35.25880 | -61.83165 | 34903 ft | 469 kts | 6° |
| 2026-04-24 13:26 | 35.32091 | -61.80916 | 34903 ft | 470 kts | 6° |
| 2026-04-24 13:27 | 35.38367 | -61.78641 | 34895 ft | 469 kts | 6° |
| 2026-04-24 13:27 | 35.44655 | -61.76357 | 34901 ft | 470 kts | 6° |
| 2026-04-24 13:28 | 35.47778 | -61.75221 | 34798 ft | 471 kts | 5° |
| 2026-04-24 13:28 | 35.50899 | -61.74085 | 34893 ft | 471 kts | 5° |
| 2026-04-24 13:28 | 35.57198 | -61.71788 | 34886 ft | 469 kts | 5° |
| 2026-04-24 13:29 | 35.63441 | -61.69511 | 34885 ft | 470 kts | 5° |
| 2026-04-24 13:29 | 35.69719 | -61.67213 | 34885 ft | 467 kts | 5° |
| 2026-04-24 13:30 | 35.75950 | -61.64932 | 34885 ft | 467 kts | 5° |
| 2026-04-24 13:30 | 35.82171 | -61.62651 | 34885 ft | 468 kts | 5° |
| 2026-04-24 13:31 | 35.88433 | -61.60351 | 34887 ft | 470 kts | 5° |
| 2026-04-24 13:31 | 35.94649 | -61.58060 | 34876 ft | 466 kts | 5° |
| 2026-04-24 13:32 | 36.00899 | -61.55758 | 34873 ft | 468 kts | 5° |
| 2026-04-24 13:32 | 36.07092 | -61.53470 | 34873 ft | 465 kts | 5° |
| 2026-04-24 13:33 | 36.13313 | -61.51171 | 34876 ft | 467 kts | 5° |
| 2026-04-24 13:33 | 36.19517 | -61.48872 | 34875 ft | 467 kts | 5° |
| 2026-04-24 13:34 | 36.25751 | -61.46559 | 34870 ft | 467 kts | 4° |
| 2026-04-24 13:34 | 36.31940 | -61.44257 | 34872 ft | 464 kts | 4° |
| 2026-04-24 13:35 | 36.38109 | -61.41959 | 34865 ft | 463 kts | 4° |
| 2026-04-24 13:35 | 36.44302 | -61.39651 | 34866 ft | 463 kts | 4° |
| 2026-04-24 13:36 | 36.50465 | -61.37349 | 34855 ft | 463 kts | 4° |
| 2026-04-24 13:36 | 36.56611 | -61.35052 | 34848 ft | 467 kts | 4° |
| 2026-04-24 13:37 | 36.62853 | -61.32710 | 34833 ft | 464 kts | 5° |
| 2026-04-24 13:37 | 36.69014 | -61.30396 | 34830 ft | 464 kts | 4° |
| 2026-04-24 13:38 | 36.75187 | -61.28074 | 34821 ft | 463 kts | 4° |
| 2026-04-24 13:38 | 36.81329 | -61.25762 | 34833 ft | 465 kts | 4° |
| 2026-04-24 13:39 | 36.87510 | -61.23428 | 34824 ft | 463 kts | 4° |
| 2026-04-24 13:39 | 36.93718 | -61.21083 | 34826 ft | 464 kts | 4° |
| 2026-04-24 13:40 | 36.99867 | -61.18751 | 34820 ft | 461 kts | 4° |
| 2026-04-24 13:40 | 37.06002 | -61.16428 | 34811 ft | 463 kts | 4° |
| 2026-04-24 13:41 | 37.12119 | -61.14099 | 34815 ft | 457 kts | 4° |
| 2026-04-24 13:41 | 37.18239 | -61.11776 | 34823 ft | 463 kts | 4° |
| 2026-04-24 13:42 | 37.24405 | -61.09423 | 34811 ft | 459 kts | 4° |
| 2026-04-24 13:42 | 37.30517 | -61.07092 | 34820 ft | 465 kts | 4° |
| 2026-04-24 13:43 | 37.36688 | -61.04729 | 34815 ft | 460 kts | 4° |
| 2026-04-24 13:43 | 37.42758 | -61.02400 | 34804 ft | 456 kts | 3° |
| 2026-04-24 13:44 | 37.48895 | -61.00053 | 34804 ft | 463 kts | 4° |
| 2026-04-24 13:44 | 37.55017 | -60.97696 | 34800 ft | 463 kts | 4° |
| 2026-04-24 13:45 | 37.61170 | -60.95324 | 34792 ft | 460 kts | 3° |
| 2026-04-24 13:45 | 37.67262 | -60.92975 | 34793 ft | 462 kts | 3° |
| 2026-04-24 13:46 | 37.73407 | -60.90601 | 34794 ft | 462 kts | 3° |
| 2026-04-24 13:46 | 37.79541 | -60.88226 | 34781 ft | 464 kts | 3° |
| 2026-04-24 13:47 | 37.85720 | -60.85829 | 34788 ft | 463 kts | 3° |
| 2026-04-24 13:47 | 37.91867 | -60.83440 | 34780 ft | 462 kts | 3° |
| 2026-04-24 13:48 | 37.98016 | -60.81047 | 34749 ft | 463 kts | 2° |
| 2026-04-24 13:48 | 38.04201 | -60.78641 | 34756 ft | 466 kts | 3° |
| 2026-04-24 13:49 | 38.10349 | -60.76233 | 34794 ft | 463 kts | 3° |
| 2026-04-24 13:49 | 38.16536 | -60.73819 | 34762 ft | 468 kts | 3° |
| 2026-04-24 13:50 | 38.22774 | -60.71373 | 34778 ft | 466 kts | 4° |
| 2026-04-24 13:50 | 38.28947 | -60.68944 | 34777 ft | 463 kts | 4° |
| 2026-04-24 13:51 | 38.35097 | -60.66524 | 34767 ft | 460 kts | 4° |
| 2026-04-24 13:51 | 38.41230 | -60.64114 | 34780 ft | 468 kts | 4° |
| 2026-04-24 13:52 | 38.47442 | -60.61660 | 34760 ft | 466 kts | 4° |
| 2026-04-24 13:52 | 38.53664 | -60.59200 | 34752 ft | 467 kts | 4° |
| 2026-04-24 13:53 | 38.59871 | -60.56742 | 34761 ft | 471 kts | 4° |
| 2026-04-24 13:53 | 38.66101 | -60.54269 | 34769 ft | 470 kts | 5° |
| 2026-04-24 13:54 | 38.72314 | -60.51792 | 34771 ft | 463 kts | 5° |
| 2026-04-24 13:54 | 38.78518 | -60.49329 | 34761 ft | 472 kts | 5° |
| 2026-04-24 13:55 | 38.84810 | -60.46816 | 34759 ft | 470 kts | 5° |
| 2026-04-24 13:55 | 38.91028 | -60.44329 | 34767 ft | 471 kts | 6° |
| 2026-04-24 13:56 | 38.97218 | -60.41845 | 34767 ft | 465 kts | 6° |
| 2026-04-24 13:56 | 39.03502 | -60.39332 | 34769 ft | 476 kts | 6° |
| 2026-04-24 13:57 | 39.09765 | -60.36808 | 34753 ft | 471 kts | 6° |
| 2026-04-24 13:57 | 39.16031 | -60.34287 | 34742 ft | 474 kts | 7° |
| 2026-04-24 13:58 | 39.22319 | -60.31748 | 34733 ft | 473 kts | 7° |
| 2026-04-24 13:58 | 39.28576 | -60.29219 | 34746 ft | 475 kts | 7° |
| 2026-04-24 13:59 | 39.34866 | -60.26671 | 34743 ft | 474 kts | 7° |
| 2026-04-24 13:59 | 39.41141 | -60.24126 | 34740 ft | 477 kts | 7° |
| 2026-04-24 14:00 | 39.47443 | -60.21560 | 34745 ft | 473 kts | 7° |
| 2026-04-24 14:00 | 39.53776 | -60.18984 | 34753 ft | 479 kts | 7° |
| 2026-04-24 14:01 | 39.60089 | -60.16401 | 34752 ft | 470 kts | 7° |
| 2026-04-24 14:01 | 39.66367 | -60.13839 | 34755 ft | 476 kts | 8° |
| 2026-04-24 14:02 | 39.72605 | -60.11280 | 34753 ft | 472 kts | 8° |
| 2026-04-24 14:02 | 39.78896 | -60.08701 | 34757 ft | 477 kts | 8° |
| 2026-04-24 14:03 | 39.85203 | -60.06104 | 34751 ft | 473 kts | 8° |
| 2026-04-24 14:03 | 39.91524 | -60.03504 | 34768 ft | 480 kts | 8° |
| 2026-04-24 14:04 | 39.97863 | -60.00883 | 34747 ft | 476 kts | 8° |
| 2026-04-24 14:04 | 40.04002 | -59.97349 | 34759 ft | 491 kts | 18° |
| 2026-04-24 14:05 | 40.10084 | -59.93348 | 34751 ft | 489 kts | 18° |
| 2026-04-24 14:05 | 40.16135 | -59.89354 | 34769 ft | 491 kts | 18° |
| 2026-04-24 14:06 | 40.22208 | -59.85334 | 34766 ft | 490 kts | 19° |
| 2026-04-24 14:06 | 40.28272 | -59.81311 | 34757 ft | 489 kts | 19° |
| 2026-04-24 14:07 | 40.34342 | -59.77276 | 34758 ft | 489 kts | 19° |
| 2026-04-24 14:07 | 40.40374 | -59.73258 | 34761 ft | 489 kts | 19° |
| 2026-04-24 14:08 | 40.46412 | -59.69228 | 34752 ft | 489 kts | 19° |
| 2026-04-24 14:08 | 40.52452 | -59.65189 | 34746 ft | 488 kts | 20° |
| 2026-04-24 14:09 | 40.58540 | -59.61109 | 34750 ft | 490 kts | 20° |
| 2026-04-24 14:09 | 40.64581 | -59.57052 | 34750 ft | 490 kts | 20° |
| 2026-04-24 14:10 | 40.70618 | -59.52988 | 34757 ft | 489 kts | 20° |
| 2026-04-24 14:10 | 40.76669 | -59.48909 | 34767 ft | 490 kts | 20° |
| 2026-04-24 14:11 | 40.82717 | -59.44821 | 34763 ft | 489 kts | 20° |
| 2026-04-24 14:12 | 40.91820 | -59.38655 | 34758 ft | 490 kts | 20° |
| 2026-04-24 14:12 | 40.97865 | -59.34548 | 34744 ft | 490 kts | 21° |
| 2026-04-24 14:13 | 41.03898 | -59.30443 | 34763 ft | 490 kts | 21° |
| 2026-04-24 14:13 | 41.09971 | -59.26300 | 34760 ft | 491 kts | 22° |
| 2026-04-24 14:14 | 41.16007 | -59.22174 | 34761 ft | 490 kts | 22° |
| 2026-04-24 14:14 | 41.25112 | -59.15935 | 34769 ft | 490 kts | 22° |
| 2026-04-24 14:15 | 41.31131 | -59.11799 | 34755 ft | 490 kts | 22° |
| 2026-04-24 14:15 | 41.37159 | -59.07648 | 34755 ft | 489 kts | 22° |
| 2026-04-24 14:16 | 41.43201 | -59.03480 | 34752 ft | 490 kts | 22° |
| 2026-04-24 14:17 | 41.52277 | -58.97201 | 34750 ft | 489 kts | 22° |
| 2026-04-24 14:17 | 41.61310 | -58.90932 | 34748 ft | 489 kts | 23° |
| 2026-04-24 14:18 | 41.67334 | -58.86740 | 34745 ft | 489 kts | 23° |
| 2026-04-24 14:18 | 41.73372 | -58.82530 | 34739 ft | 489 kts | 23° |
| 2026-04-24 14:19 | 41.79347 | -58.78354 | 34740 ft | 487 kts | 23° |
| 2026-04-24 14:19 | 41.85362 | -58.74142 | 34733 ft | 488 kts | 24° |
| 2026-04-24 14:20 | 41.91391 | -58.69912 | 34735 ft | 489 kts | 24° |
| 2026-04-24 14:20 | 41.97387 | -58.65694 | 34735 ft | 488 kts | 24° |
| 2026-04-24 14:21 | 42.03407 | -58.61451 | 34737 ft | 489 kts | 24° |
| 2026-04-24 14:21 | 42.09395 | -58.57222 | 34735 ft | 488 kts | 24° |
| 2026-04-24 14:22 | 42.15385 | -58.52982 | 34738 ft | 489 kts | 24° |
| 2026-04-24 14:23 | 42.24406 | -58.46580 | 34741 ft | 488 kts | 24° |
| 2026-04-24 14:23 | 42.30358 | -58.42343 | 34749 ft | 487 kts | 24° |
| 2026-04-24 14:24 | 42.36367 | -58.38057 | 34744 ft | 487 kts | 25° |
| 2026-04-24 14:24 | 42.42325 | -58.33799 | 34739 ft | 487 kts | 25° |
| 2026-04-24 14:25 | 42.48321 | -58.29504 | 34740 ft | 487 kts | 25° |
| 2026-04-24 14:25 | 42.54308 | -58.25206 | 34740 ft | 487 kts | 26° |
| 2026-04-24 14:26 | 42.60266 | -58.20920 | 34746 ft | 486 kts | 25° |
| 2026-04-24 14:26 | 42.66236 | -58.16615 | 34744 ft | 487 kts | 26° |
| 2026-04-24 14:27 | 42.72185 | -58.12317 | 34742 ft | 486 kts | 26° |
| 2026-04-24 14:27 | 42.78131 | -58.08010 | 34741 ft | 486 kts | 26° |
| 2026-04-24 14:28 | 42.84084 | -58.03690 | 34727 ft | 487 kts | 26° |
| 2026-04-24 14:28 | 42.90072 | -57.99334 | 34718 ft | 487 kts | 26° |
| 2026-04-24 14:29 | 42.96044 | -57.94981 | 34724 ft | 486 kts | 26° |
| 2026-04-24 14:29 | 43.01959 | -57.90659 | 34718 ft | 485 kts | 26° |
| 2026-04-24 14:30 | 43.07861 | -57.86174 | 34718 ft | 486 kts | 31° |
| 2026-04-24 14:30 | 43.13488 | -57.81044 | 34716 ft | 486 kts | 32° |
| 2026-04-24 14:31 | 43.19080 | -57.75891 | 34717 ft | 486 kts | 32° |
| 2026-04-24 14:31 | 43.24697 | -57.70705 | 34713 ft | 487 kts | 33° |
| 2026-04-24 14:32 | 43.30293 | -57.65525 | 34709 ft | 487 kts | 33° |
| 2026-04-24 14:32 | 43.35897 | -57.60325 | 34712 ft | 487 kts | 33° |
| 2026-04-24 14:33 | 43.41487 | -57.55127 | 34706 ft | 487 kts | 33° |
| 2026-04-24 14:33 | 43.47106 | -57.49891 | 34705 ft | 486 kts | 33° |
| 2026-04-24 14:34 | 43.52667 | -57.44697 | 34709 ft | 486 kts | 33° |
| 2026-04-24 14:34 | 43.58285 | -57.39437 | 34708 ft | 487 kts | 33° |
| 2026-04-24 14:35 | 43.63875 | -57.34192 | 34706 ft | 486 kts | 34° |
| 2026-04-24 14:35 | 43.69439 | -57.28959 | 34700 ft | 486 kts | 34° |
| 2026-04-24 14:36 | 43.74989 | -57.23727 | 34704 ft | 486 kts | 34° |
| 2026-04-24 14:36 | 43.80576 | -57.18448 | 34687 ft | 485 kts | 34° |
| 2026-04-24 14:37 | 43.86151 | -57.13168 | 34679 ft | 486 kts | 34° |
| 2026-04-24 14:37 | 43.91707 | -57.07894 | 34681 ft | 485 kts | 34° |
| 2026-04-24 14:38 | 43.97233 | -57.02637 | 34681 ft | 485 kts | 34° |
| 2026-04-24 14:38 | 44.02766 | -56.97285 | 34683 ft | 484 kts | 36° |
| 2026-04-24 14:39 | 44.08194 | -56.91817 | 34681 ft | 484 kts | 36° |
| 2026-04-24 14:39 | 44.13638 | -56.86328 | 34676 ft | 485 kts | 36° |
| 2026-04-24 14:40 | 44.19079 | -56.80835 | 34676 ft | 484 kts | 36° |
| 2026-04-24 14:40 | 44.24495 | -56.75359 | 34676 ft | 484 kts | 36° |
| 2026-04-24 14:41 | 44.29942 | -56.69841 | 34667 ft | 485 kts | 36° |
| 2026-04-24 14:41 | 44.35392 | -56.64309 | 34662 ft | 485 kts | 36° |
| 2026-04-24 14:42 | 44.40839 | -56.58767 | 34669 ft | 485 kts | 37° |
| 2026-04-24 14:42 | 44.46278 | -56.53219 | 34659 ft | 485 kts | 37° |
| 2026-04-24 14:43 | 44.51702 | -56.47675 | 34662 ft | 483 kts | 37° |
| 2026-04-24 14:43 | 44.57111 | -56.42133 | 34653 ft | 483 kts | 37° |
| 2026-04-24 14:44 | 44.62495 | -56.36603 | 34655 ft | 483 kts | 37° |
| 2026-04-24 14:44 | 44.67899 | -56.31040 | 34650 ft | 483 kts | 38° |
| 2026-04-24 14:45 | 44.73291 | -56.25477 | 34648 ft | 483 kts | 38° |
| 2026-04-24 14:45 | 44.78689 | -56.19894 | 34651 ft | 482 kts | 38° |
| 2026-04-24 14:46 | 44.84080 | -56.14304 | 34648 ft | 482 kts | 38° |
| 2026-04-24 14:46 | 44.89444 | -56.08730 | 34646 ft | 481 kts | 38° |
| 2026-04-24 14:47 | 44.94826 | -56.03124 | 34649 ft | 480 kts | 38° |
| 2026-04-24 14:47 | 45.00163 | -55.97551 | 34650 ft | 480 kts | 38° |
| 2026-04-24 14:48 | 45.05504 | -55.91960 | 34647 ft | 479 kts | 38° |
| 2026-04-24 14:48 | 45.10848 | -55.86353 | 34652 ft | 480 kts | 38° |
| 2026-04-24 14:49 | 45.16201 | -55.80724 | 34645 ft | 480 kts | 38° |
| 2026-04-24 14:49 | 45.21520 | -55.75117 | 34639 ft | 479 kts | 38° |
| 2026-04-24 14:50 | 45.26854 | -55.69481 | 34643 ft | 477 kts | 38° |
| 2026-04-24 14:50 | 45.32159 | -55.63861 | 34646 ft | 477 kts | 38° |
| 2026-04-24 14:51 | 45.37468 | -55.58225 | 34642 ft | 477 kts | 38° |
| 2026-04-24 14:51 | 45.42745 | -55.52608 | 34632 ft | 477 kts | 38° |
| 2026-04-24 14:52 | 45.48066 | -55.46931 | 34632 ft | 478 kts | 38° |
| 2026-04-24 14:52 | 45.53350 | -55.41280 | 34637 ft | 477 kts | 38° |
| 2026-04-24 14:53 | 45.58608 | -55.35643 | 34631 ft | 475 kts | 38° |
| 2026-04-24 14:53 | 45.63883 | -55.29975 | 34632 ft | 475 kts | 39° |
| 2026-04-24 14:54 | 45.69133 | -55.24320 | 34650 ft | 473 kts | 39° |
| 2026-04-24 14:54 | 45.74380 | -55.18653 | 34635 ft | 474 kts | 39° |
| 2026-04-24 14:55 | 45.79610 | -55.12993 | 34636 ft | 474 kts | 39° |
| 2026-04-24 14:55 | 45.84856 | -55.07301 | 34623 ft | 472 kts | 39° |
| 2026-04-24 14:56 | 45.90075 | -55.01624 | 34635 ft | 472 kts | 39° |
| 2026-04-24 14:56 | 45.95300 | -54.95927 | 34644 ft | 472 kts | 39° |
| 2026-04-24 14:57 | 46.00517 | -54.90226 | 34642 ft | 472 kts | 39° |
| 2026-04-24 14:57 | 46.05723 | -54.84522 | 34641 ft | 472 kts | 39° |
| 2026-04-24 14:58 | 46.10911 | -54.78824 | 34645 ft | 472 kts | 39° |
| 2026-04-24 14:58 | 46.16131 | -54.73077 | 34633 ft | 473 kts | 39° |
| 2026-04-24 14:59 | 46.21332 | -54.67337 | 34640 ft | 472 kts | 39° |
| 2026-04-24 14:59 | 46.26529 | -54.61587 | 34629 ft | 473 kts | 39° |
| 2026-04-24 15:00 | 46.31748 | -54.55799 | 34637 ft | 474 kts | 40° |
| 2026-04-24 15:00 | 46.36968 | -54.49996 | 34644 ft | 475 kts | 40° |
| 2026-04-24 15:01 | 46.42180 | -54.44187 | 34633 ft | 474 kts | 39° |
| 2026-04-24 15:01 | 46.47405 | -54.38349 | 34643 ft | 474 kts | 40° |
| 2026-04-24 15:02 | 46.52599 | -54.32532 | 34644 ft | 473 kts | 40° |
| 2026-04-24 15:02 | 46.57785 | -54.26708 | 34635 ft | 474 kts | 40° |
| 2026-04-24 15:03 | 46.63025 | -54.20808 | 34657 ft | 475 kts | 40° |
| 2026-04-24 15:03 | 46.68226 | -54.14940 | 34663 ft | 476 kts | 41° |
| 2026-04-24 15:04 | 46.73404 | -54.09082 | 34656 ft | 474 kts | 40° |
| 2026-04-24 15:04 | 46.78637 | -54.03146 | 34664 ft | 476 kts | 40° |
| 2026-04-24 15:05 | 46.83809 | -53.97266 | 34650 ft | 475 kts | 41° |
| 2026-04-24 15:05 | 46.89026 | -53.91319 | 34659 ft | 474 kts | 40° |
| 2026-04-24 15:06 | 46.94218 | -53.85385 | 34662 ft | 474 kts | 41° |
| 2026-04-24 15:06 | 46.99373 | -53.79480 | 34655 ft | 474 kts | 41° |
| 2026-04-24 15:07 | 47.04548 | -53.73537 | 34657 ft | 473 kts | 41° |
| 2026-04-24 15:07 | 47.09710 | -53.67592 | 34650 ft | 472 kts | 41° |
| 2026-04-24 15:08 | 47.14844 | -53.61665 | 34653 ft | 472 kts | 41° |
| 2026-04-24 15:08 | 47.19989 | -53.55710 | 34656 ft | 472 kts | 41° |
| 2026-04-24 15:09 | 47.25113 | -53.49766 | 34657 ft | 472 kts | 41° |
| 2026-04-24 15:09 | 47.30246 | -53.43794 | 34664 ft | 472 kts | 41° |
| 2026-04-24 15:10 | 47.35406 | -53.37777 | 34676 ft | 471 kts | 41° |
| 2026-04-24 15:10 | 47.40508 | -53.31811 | 34685 ft | 471 kts | 42° |
| 2026-04-24 15:11 | 47.45637 | -53.25800 | 34676 ft | 470 kts | 42° |
| 2026-04-24 15:11 | 47.50741 | -53.19802 | 34677 ft | 471 kts | 42° |
| 2026-04-24 15:12 | 47.55843 | -53.13791 | 34687 ft | 468 kts | 42° |
| 2026-04-24 15:12 | 47.63455 | -53.04794 | 34698 ft | 468 kts | 42° |
| 2026-04-24 15:13 | 47.68512 | -52.98797 | 34696 ft | 468 kts | 42° |
| 2026-04-24 15:13 | 47.73581 | -52.92771 | 34718 ft | 472 kts | 42° |
| 2026-04-24 15:14 | 47.76150 | -52.89709 | 35025 ft | 473 kts | 42° |
| 2026-04-24 15:14 | 47.78692 | -52.86680 | 35475 ft | 471 kts | 42° |
| 2026-04-24 15:14 | 47.81270 | -52.83600 | 35673 ft | 473 kts | 42° |
| 2026-04-24 15:14 | 47.83803 | -52.80571 | 35678 ft | 471 kts | 42° |
| 2026-04-24 15:15 | 47.88882 | -52.74488 | 35695 ft | 468 kts | 42° |
| 2026-04-24 15:15 | 47.93916 | -52.68441 | 35706 ft | 468 kts | 42° |
| 2026-04-24 15:16 | 47.98979 | -52.62344 | 35714 ft | 467 kts | 42° |
| 2026-04-24 15:16 | 48.03985 | -52.56300 | 35703 ft | 467 kts | 42° |
| 2026-04-24 15:17 | 48.09027 | -52.50196 | 35709 ft | 467 kts | 42° |
| 2026-04-24 15:17 | 48.14055 | -52.44093 | 35713 ft | 468 kts | 42° |
| 2026-04-24 15:18 | 48.19102 | -52.37953 | 35720 ft | 467 kts | 42° |
| 2026-04-24 15:18 | 48.24111 | -52.31842 | 35724 ft | 467 kts | 43° |
| 2026-04-24 15:19 | 48.29136 | -52.25693 | 35730 ft | 468 kts | 43° |
| 2026-04-24 15:19 | 48.34166 | -52.19526 | 35727 ft | 467 kts | 43° |
| 2026-04-24 15:20 | 48.39202 | -52.13333 | 35735 ft | 468 kts | 43° |
| 2026-04-24 15:20 | 48.44202 | -52.07167 | 35718 ft | 468 kts | 43° |
| 2026-04-24 15:21 | 48.48771 | -52.00329 | 35716 ft | 462 kts | 57° |
| 2026-04-24 15:21 | 48.51815 | -51.91943 | 35721 ft | 455 kts | 70° |
| 2026-04-24 15:22 | 48.54228 | -51.83190 | 35712 ft | 455 kts | 70° |
| 2026-04-24 15:23 | 48.57767 | -51.69857 | 35714 ft | 457 kts | 71° |
| 2026-04-24 15:23 | 48.61234 | -51.56505 | 35718 ft | 458 kts | 71° |
| 2026-04-24 15:25 | 48.66958 | -51.34127 | 35720 ft | 457 kts | 72° |
| 2026-04-24 15:26 | 48.72618 | -51.11723 | 35711 ft | 460 kts | 72° |
| 2026-04-24 15:27 | 48.79368 | -50.84699 | 35736 ft | 460 kts | 72° |
| 2026-04-24 15:29 | 48.86064 | -50.57563 | 35719 ft | 461 kts | 72° |
| 2026-04-24 15:31 | 48.93831 | -50.25667 | 35709 ft | 462 kts | 72° |
| 2026-04-24 15:33 | 49.02729 | -49.89108 | 35706 ft | 464 kts | 71° |
| 2026-04-24 15:34 | 49.08470 | -49.66235 | 35706 ft | 464 kts | 71° |
| 2026-04-24 15:35 | 49.14166 | -49.43259 | 35702 ft | 464 kts | 71° |
| 2026-04-24 15:36 | 49.16428 | -49.34064 | 35715 ft | 464 kts | 72° |
| 2026-04-24 15:36 | 49.19798 | -49.20293 | 35719 ft | 464 kts | 72° |
| 2026-04-24 15:37 | 49.22042 | -49.11079 | 35723 ft | 463 kts | 72° |
| 2026-04-24 15:37 | 49.24282 | -49.01838 | 35719 ft | 465 kts | 72° |
| 2026-04-24 15:38 | 49.26519 | -48.92574 | 35726 ft | 465 kts | 72° |
| 2026-04-24 15:38 | 49.28734 | -48.83358 | 35721 ft | 465 kts | 72° |
| 2026-04-24 15:39 | 49.30956 | -48.74080 | 35726 ft | 466 kts | 72° |
| 2026-04-24 15:39 | 49.33182 | -48.64740 | 35722 ft | 466 kts | 72° |
| 2026-04-24 15:40 | 49.35387 | -48.55452 | 35722 ft | 465 kts | 72° |
| 2026-04-24 15:40 | 49.37587 | -48.46142 | 35719 ft | 465 kts | 72° |
| 2026-04-24 15:41 | 49.39774 | -48.36847 | 35712 ft | 465 kts | 72° |
| 2026-04-24 15:41 | 49.41960 | -48.27519 | 35722 ft | 465 kts | 72° |
| 2026-04-24 15:42 | 49.44128 | -48.18228 | 35716 ft | 465 kts | 72° |
| 2026-04-24 15:42 | 49.46303 | -48.08862 | 35720 ft | 465 kts | 72° |
| 2026-04-24 15:43 | 49.48449 | -47.99587 | 35697 ft | 464 kts | 72° |
| 2026-04-24 15:43 | 49.50599 | -47.90251 | 35724 ft | 464 kts | 72° |
| 2026-04-24 15:44 | 49.52739 | -47.80917 | 35712 ft | 465 kts | 72° |
| 2026-04-24 15:44 | 49.54880 | -47.71538 | 35714 ft | 463 kts | 72° |
| 2026-04-24 15:45 | 49.56991 | -47.62251 | 35711 ft | 463 kts | 72° |
| 2026-04-24 15:45 | 49.59107 | -47.52896 | 35702 ft | 464 kts | 72° |
| 2026-04-24 15:46 | 49.61215 | -47.43541 | 35719 ft | 464 kts | 72° |
| 2026-04-24 15:46 | 49.63318 | -47.34162 | 35712 ft | 463 kts | 73° |
| 2026-04-24 15:47 | 49.65398 | -47.24847 | 35706 ft | 463 kts | 73° |
| 2026-04-24 15:47 | 49.67474 | -47.15507 | 35726 ft | 461 kts | 73° |
| 2026-04-24 15:48 | 49.69544 | -47.06152 | 35723 ft | 460 kts | 73° |
| 2026-04-24 15:48 | 49.71595 | -46.96845 | 35725 ft | 461 kts | 73° |
| 2026-04-24 15:49 | 49.73660 | -46.87426 | 35721 ft | 463 kts | 73° |
| 2026-04-24 15:49 | 49.75705 | -46.78061 | 35727 ft | 462 kts | 73° |
| 2026-04-24 15:50 | 49.77755 | -46.68627 | 35723 ft | 462 kts | 73° |
| 2026-04-24 15:50 | 49.79784 | -46.59248 | 35714 ft | 463 kts | 73° |
| 2026-04-24 15:51 | 49.81801 | -46.49879 | 35705 ft | 463 kts | 73° |
| 2026-04-24 15:51 | 49.83831 | -46.40408 | 35729 ft | 464 kts | 73° |
| 2026-04-24 15:52 | 49.85849 | -46.30953 | 35711 ft | 464 kts | 74° |
| 2026-04-24 15:52 | 49.87858 | -46.21492 | 35723 ft | 463 kts | 74° |
| 2026-04-24 15:53 | 49.89858 | -46.12029 | 35727 ft | 464 kts | 74° |
| 2026-04-24 15:53 | 49.91842 | -46.02599 | 35718 ft | 463 kts | 74° |
| 2026-04-24 15:54 | 49.93824 | -45.93136 | 35718 ft | 464 kts | 74° |
| 2026-04-24 15:54 | 49.95802 | -45.83642 | 35724 ft | 463 kts | 73° |
| 2026-04-24 15:55 | 49.97766 | -45.74173 | 35728 ft | 464 kts | 74° |
| 2026-04-24 15:55 | 49.99730 | -45.64660 | 35724 ft | 462 kts | 74° |
| 2026-04-24 15:56 | 50.01678 | -45.55183 | 35728 ft | 462 kts | 74° |
| 2026-04-24 15:56 | 50.03617 | -45.45700 | 35735 ft | 462 kts | 73° |
| 2026-04-24 15:57 | 50.05554 | -45.36180 | 35723 ft | 462 kts | 73° |
| 2026-04-24 15:57 | 50.07480 | -45.26673 | 35718 ft | 462 kts | 74° |
| 2026-04-24 15:58 | 50.09394 | -45.17171 | 35726 ft | 464 kts | 74° |
| 2026-04-24 15:58 | 50.11305 | -45.07643 | 35717 ft | 463 kts | 74° |
| 2026-04-24 15:59 | 50.13207 | -44.98113 | 35718 ft | 462 kts | 74° |
| 2026-04-24 15:59 | 50.15111 | -44.88530 | 35718 ft | 462 kts | 74° |
| 2026-04-24 16:00 | 50.16996 | -44.78992 | 35706 ft | 462 kts | 74° |
| 2026-04-24 16:00 | 50.18872 | -44.69451 | 35698 ft | 463 kts | 74° |
| 2026-04-24 16:01 | 50.20736 | -44.59925 | 35696 ft | 463 kts | 73° |
| 2026-04-24 16:01 | 50.22610 | -44.50301 | 35706 ft | 464 kts | 74° |
| 2026-04-24 16:02 | 50.24465 | -44.40727 | 35701 ft | 464 kts | 74° |
| 2026-04-24 16:02 | 50.26321 | -44.31099 | 35700 ft | 464 kts | 75° |
| 2026-04-24 16:03 | 50.28167 | -44.21470 | 35705 ft | 464 kts | 74° |
| 2026-04-24 16:03 | 50.29998 | -44.11878 | 35703 ft | 463 kts | 74° |
| 2026-04-24 16:04 | 50.31830 | -44.02224 | 35705 ft | 464 kts | 74° |
| 2026-04-24 16:04 | 50.33646 | -43.92610 | 35702 ft | 465 kts | 74° |
| 2026-04-24 16:05 | 50.36374 | -43.78071 | 35701 ft | 465 kts | 74° |
| 2026-04-24 16:06 | 50.39075 | -43.63564 | 35700 ft | 464 kts | 74° |
| 2026-04-24 16:07 | 50.41761 | -43.49028 | 35697 ft | 465 kts | 74° |
| 2026-04-24 16:07 | 50.44430 | -43.34467 | 35688 ft | 466 kts | 75° |
| 2026-04-24 16:08 | 50.47091 | -43.19830 | 35681 ft | 468 kts | 75° |
| 2026-04-24 16:09 | 50.49737 | -43.05156 | 35683 ft | 466 kts | 74° |
| 2026-04-24 16:09 | 50.51492 | -42.95363 | 35681 ft | 471 kts | 75° |
| 2026-04-24 16:11 | 50.55914 | -42.70443 | 35684 ft | 474 kts | 74° |
| 2026-04-24 16:11 | 50.57658 | -42.60515 | 35681 ft | 475 kts | 74° |
| 2026-04-24 16:12 | 50.60278 | -42.45501 | 35686 ft | 477 kts | 74° |
| 2026-04-24 16:13 | 50.62877 | -42.30477 | 35680 ft | 477 kts | 75° |
| 2026-04-24 16:14 | 50.66321 | -42.10367 | 35682 ft | 477 kts | 75° |
| 2026-04-24 16:14 | 50.68895 | -41.95185 | 35676 ft | 477 kts | 75° |
| 2026-04-24 16:15 | 50.71434 | -41.80082 | 35661 ft | 478 kts | 75° |
| 2026-04-24 16:16 | 50.73961 | -41.64909 | 35664 ft | 479 kts | 75° |
| 2026-04-24 16:17 | 50.78137 | -41.39545 | 35667 ft | 480 kts | 75° |
| 2026-04-24 16:18 | 50.81437 | -41.19228 | 35664 ft | 479 kts | 75° |
| 2026-04-24 16:19 | 50.83895 | -41.03931 | 35663 ft | 480 kts | 75° |
| 2026-04-24 16:20 | 50.86328 | -40.88649 | 35663 ft | 481 kts | 75° |
| 2026-04-24 16:20 | 50.88754 | -40.73265 | 35670 ft | 481 kts | 75° |
| 2026-04-24 16:21 | 50.91152 | -40.57920 | 35653 ft | 482 kts | 75° |
| 2026-04-24 16:22 | 50.92744 | -40.47655 | 35668 ft | 483 kts | 75° |
| 2026-04-24 16:22 | 50.95126 | -40.32163 | 35674 ft | 483 kts | 76° |
| 2026-04-24 16:23 | 50.96702 | -40.21833 | 35664 ft | 483 kts | 76° |
| 2026-04-24 16:24 | 50.99043 | -40.06370 | 35661 ft | 483 kts | 76° |
| 2026-04-24 16:24 | 51.00671 | -39.96068 | 35653 ft | 482 kts | 70° |
| 2026-04-24 16:25 | 51.03223 | -39.86215 | 35665 ft | 483 kts | 66° |
| 2026-04-24 16:25 | 51.05799 | -39.76418 | 35658 ft | 483 kts | 66° |
| 2026-04-24 16:26 | 51.09565 | -39.61655 | 35666 ft | 483 kts | 67° |
| 2026-04-24 16:27 | 51.13269 | -39.46836 | 35655 ft | 482 kts | 67° |
| 2026-04-24 16:27 | 51.15717 | -39.36942 | 35667 ft | 483 kts | 67° |
| 2026-04-24 16:28 | 51.18164 | -39.26987 | 35650 ft | 482 kts | 68° |
| 2026-04-24 16:28 | 51.21795 | -39.12114 | 35631 ft | 484 kts | 68° |
| 2026-04-24 16:29 | 51.24218 | -39.02131 | 35650 ft | 484 kts | 68° |
| 2026-04-24 16:30 | 51.29022 | -38.82191 | 35635 ft | 483 kts | 68° |
| 2026-04-24 16:30 | 51.31407 | -38.72223 | 35643 ft | 483 kts | 68° |
| 2026-04-24 16:31 | 51.33791 | -38.62214 | 35637 ft | 483 kts | 68° |
| 2026-04-24 16:31 | 51.36160 | -38.52220 | 35645 ft | 483 kts | 68° |
| 2026-04-24 16:32 | 51.38524 | -38.42204 | 35628 ft | 482 kts | 68° |
| 2026-04-24 16:32 | 51.40878 | -38.32181 | 35643 ft | 483 kts | 69° |
| 2026-04-24 16:33 | 51.43234 | -38.22104 | 35632 ft | 483 kts | 69° |
| 2026-04-24 16:33 | 51.45566 | -38.12079 | 35644 ft | 483 kts | 69° |
| 2026-04-24 16:34 | 51.47897 | -38.02016 | 35637 ft | 483 kts | 69° |
| 2026-04-24 16:34 | 51.50204 | -37.92008 | 35651 ft | 482 kts | 69° |
| 2026-04-24 16:35 | 51.52527 | -37.81880 | 35618 ft | 482 kts | 69° |
| 2026-04-24 16:35 | 51.54824 | -37.71820 | 35632 ft | 483 kts | 69° |
| 2026-04-24 16:36 | 51.57113 | -37.61749 | 35622 ft | 483 kts | 69° |
| 2026-04-24 16:36 | 51.59400 | -37.51633 | 35626 ft | 482 kts | 69° |
| 2026-04-24 16:37 | 51.61680 | -37.41505 | 35616 ft | 483 kts | 69° |
| 2026-04-24 16:37 | 51.63940 | -37.31411 | 35623 ft | 482 kts | 69° |
| 2026-04-24 16:38 | 51.66189 | -37.21322 | 35607 ft | 482 kts | 69° |
| 2026-04-24 16:38 | 51.68440 | -37.11176 | 35626 ft | 482 kts | 69° |
| 2026-04-24 16:39 | 51.70682 | -37.01020 | 35605 ft | 482 kts | 70° |
| 2026-04-24 16:39 | 51.72901 | -36.90915 | 35633 ft | 482 kts | 70° |
| 2026-04-24 16:40 | 51.75125 | -36.80743 | 35601 ft | 482 kts | 69° |
| 2026-04-24 16:40 | 51.77336 | -36.70576 | 35602 ft | 482 kts | 69° |
| 2026-04-24 16:41 | 51.79539 | -36.60399 | 35617 ft | 481 kts | 69° |
| 2026-04-24 16:41 | 51.81733 | -36.50209 | 35591 ft | 482 kts | 69° |
| 2026-04-24 16:42 | 51.83913 | -36.40038 | 35584 ft | 481 kts | 70° |
| 2026-04-24 16:42 | 51.86081 | -36.29872 | 35591 ft | 481 kts | 70° |
| 2026-04-24 16:43 | 51.88245 | -36.19667 | 35602 ft | 482 kts | 70° |
| 2026-04-24 16:43 | 51.90404 | -36.09443 | 35585 ft | 482 kts | 70° |
| 2026-04-24 16:44 | 51.92556 | -35.99196 | 35585 ft | 481 kts | 70° |
| 2026-04-24 16:44 | 51.94689 | -35.88984 | 35574 ft | 481 kts | 70° |
| 2026-04-24 16:45 | 51.96809 | -35.78787 | 35582 ft | 480 kts | 70° |
| 2026-04-24 16:45 | 51.98926 | -35.68552 | 35571 ft | 481 kts | 70° |
| 2026-04-24 16:46 | 52.01043 | -35.58264 | 35571 ft | 480 kts | 70° |
| 2026-04-24 16:46 | 52.03129 | -35.48074 | 35574 ft | 480 kts | 70° |
| 2026-04-24 16:47 | 52.05218 | -35.37815 | 35571 ft | 479 kts | 70° |
| 2026-04-24 16:47 | 52.07306 | -35.27505 | 35573 ft | 480 kts | 71° |
| 2026-04-24 16:48 | 52.09376 | -35.17234 | 35571 ft | 480 kts | 71° |
| 2026-04-24 16:48 | 52.11433 | -35.06974 | 35569 ft | 481 kts | 71° |
| 2026-04-24 16:49 | 52.13488 | -34.96666 | 35583 ft | 479 kts | 71° |
| 2026-04-24 16:49 | 52.15537 | -34.86338 | 35585 ft | 479 kts | 71° |
| 2026-04-24 16:50 | 52.17563 | -34.76071 | 35586 ft | 479 kts | 71° |
| 2026-04-24 16:50 | 52.19592 | -34.65733 | 35590 ft | 479 kts | 71° |
| 2026-04-24 16:51 | 52.21598 | -34.55454 | 35596 ft | 479 kts | 71° |
| 2026-04-24 16:51 | 52.23610 | -34.45094 | 35590 ft | 479 kts | 71° |
| 2026-04-24 16:52 | 52.25597 | -34.34803 | 35584 ft | 478 kts | 72° |
| 2026-04-24 16:52 | 52.27580 | -34.24482 | 35598 ft | 478 kts | 72° |
| 2026-04-24 16:53 | 52.29558 | -34.14126 | 35598 ft | 478 kts | 72° |
| 2026-04-24 16:53 | 52.31518 | -34.03807 | 35599 ft | 478 kts | 72° |
| 2026-04-24 16:54 | 52.33477 | -33.93441 | 35607 ft | 479 kts | 72° |
| 2026-04-24 16:54 | 52.35417 | -33.83115 | 35613 ft | 480 kts | 72° |
| 2026-04-24 16:55 | 52.37367 | -33.72683 | 35613 ft | 480 kts | 72° |
| 2026-04-24 16:55 | 52.39292 | -33.62318 | 35624 ft | 479 kts | 72° |
| 2026-04-24 16:56 | 52.41219 | -33.51893 | 35620 ft | 479 kts | 72° |
| 2026-04-24 16:56 | 52.43131 | -33.41489 | 35635 ft | 478 kts | 72° |
| 2026-04-24 16:57 | 52.45032 | -33.31078 | 35631 ft | 478 kts | 73° |
| 2026-04-24 16:57 | 52.46927 | -33.20651 | 35642 ft | 479 kts | 73° |
| 2026-04-24 16:58 | 52.48811 | -33.10218 | 35645 ft | 479 kts | 74° |
| 2026-04-24 16:58 | 52.50674 | -32.99849 | 35648 ft | 474 kts | 75° |
| 2026-04-24 16:59 | 52.52523 | -32.89496 | 35654 ft | 475 kts | 75° |
| 2026-04-24 17:00 | 52.55282 | -32.73932 | 35656 ft | 474 kts | 75° |
| 2026-04-24 17:00 | 52.58004 | -32.58446 | 35663 ft | 472 kts | 75° |
| 2026-04-24 17:01 | 52.60701 | -32.42967 | 35665 ft | 474 kts | 75° |
| 2026-04-24 17:02 | 52.63391 | -32.27398 | 35679 ft | 472 kts | 75° |
| 2026-04-24 17:02 | 52.65163 | -32.17063 | 35680 ft | 472 kts | 75° |
| 2026-04-24 17:03 | 52.67810 | -32.01509 | 35684 ft | 472 kts | 75° |
| 2026-04-24 17:04 | 52.69559 | -31.91156 | 35689 ft | 470 kts | 75° |
| 2026-04-24 17:04 | 52.72155 | -31.75671 | 35691 ft | 470 kts | 75° |
| 2026-04-24 17:05 | 52.73887 | -31.65269 | 35692 ft | 469 kts | 75° |
| 2026-04-24 17:06 | 52.76442 | -31.49799 | 35695 ft | 470 kts | 76° |
| 2026-04-24 17:06 | 52.78986 | -31.34261 | 35705 ft | 469 kts | 76° |
| 2026-04-24 17:07 | 52.80670 | -31.23891 | 35710 ft | 468 kts | 76° |
| 2026-04-24 17:08 | 52.84012 | -31.03125 | 35715 ft | 468 kts | 76° |
| 2026-04-24 17:08 | 52.85657 | -30.92811 | 35721 ft | 467 kts | 76° |
| 2026-04-24 17:09 | 52.88932 | -30.72081 | 35724 ft | 466 kts | 76° |
| 2026-04-24 17:10 | 52.92159 | -30.51394 | 35724 ft | 466 kts | 76° |
| 2026-04-24 17:12 | 52.98490 | -30.10026 | 35737 ft | 464 kts | 77° |
| 2026-04-24 18:54 | 54.40552 | -9.18343 | 36185 ft | 461 kts | 86° |
| 2026-04-24 18:55 | 54.41580 | -9.02000 | 36186 ft | 462 kts | 86° |
| 2026-04-24 18:56 | 54.42254 | -8.91083 | 36189 ft | 463 kts | 86° |
| 2026-04-24 18:56 | 54.42922 | -8.80086 | 36188 ft | 463 kts | 86° |
| 2026-04-24 18:57 | 54.43576 | -8.69174 | 36196 ft | 463 kts | 86° |
| 2026-04-24 18:57 | 54.44222 | -8.58218 | 36196 ft | 463 kts | 86° |
| 2026-04-24 18:58 | 54.44862 | -8.47239 | 36197 ft | 465 kts | 85° |
| 2026-04-24 18:58 | 54.46515 | -8.36480 | 36200 ft | 470 kts | 68° |
| 2026-04-24 18:59 | 54.49846 | -8.26858 | 36210 ft | 470 kts | 57° |
| 2026-04-24 18:59 | 54.53484 | -8.17638 | 36209 ft | 469 kts | 58° |
| 2026-04-24 19:00 | 54.57069 | -8.08277 | 36216 ft | 467 kts | 58° |
| 2026-04-24 19:00 | 54.60585 | -7.98924 | 36216 ft | 467 kts | 59° |
| 2026-04-24 19:01 | 54.64078 | -7.89525 | 36213 ft | 469 kts | 59° |
| 2026-04-24 19:01 | 54.67543 | -7.80001 | 36208 ft | 468 kts | 63° |
| 2026-04-24 19:02 | 54.70090 | -7.69715 | 36212 ft | 468 kts | 70° |
| 2026-04-24 19:02 | 54.72435 | -7.59294 | 36213 ft | 468 kts | 70° |
| 2026-04-24 19:03 | 54.74773 | -7.48849 | 36214 ft | 469 kts | 70° |
| 2026-04-24 19:03 | 54.77115 | -7.38335 | 36219 ft | 469 kts | 70° |
| 2026-04-24 19:04 | 54.79427 | -7.27908 | 35902 ft | 463 kts | 70° |
| 2026-04-24 19:04 | 54.80584 | -7.22665 | 35076 ft | 468 kts | 70° |
| 2026-04-24 19:04 | 54.81732 | -7.17451 | 34242 ft | 471 kts | 70° |
| 2026-04-24 19:04 | 54.82908 | -7.12100 | 33395 ft | 473 kts | 70° |
| 2026-04-24 19:05 | 54.84062 | -7.06832 | 32590 ft | 474 kts | 70° |
| 2026-04-24 19:05 | 54.85230 | -7.01488 | 31761 ft | 476 kts | 70° |
| 2026-04-24 19:05 | 54.86397 | -6.96135 | 30940 ft | 478 kts | 70° |
| 2026-04-24 19:05 | 54.87566 | -6.90756 | 30412 ft | 474 kts | 70° |
| 2026-04-24 19:06 | 54.88716 | -6.85455 | 29972 ft | 470 kts | 70° |
| 2026-04-24 19:06 | 54.89857 | -6.80183 | 29474 ft | 467 kts | 70° |
| 2026-04-24 19:06 | 54.90989 | -6.74937 | 28946 ft | 465 kts | 70° |
| 2026-04-24 19:06 | 54.92113 | -6.69715 | 28419 ft | 463 kts | 70° |
| 2026-04-24 19:07 | 54.93219 | -6.64562 | 27886 ft | 461 kts | 70° |
| 2026-04-24 19:07 | 54.94335 | -6.59354 | 27346 ft | 459 kts | 70° |
| 2026-04-24 19:07 | 54.95440 | -6.54180 | 26809 ft | 454 kts | 70° |
| 2026-04-24 19:07 | 54.96521 | -6.49109 | 26267 ft | 450 kts | 70° |
| 2026-04-24 19:08 | 54.97597 | -6.44045 | 25727 ft | 446 kts | 70° |
| 2026-04-24 19:08 | 54.98659 | -6.39034 | 25186 ft | 442 kts | 70° |
| 2026-04-24 19:08 | 54.99716 | -6.34036 | 24638 ft | 437 kts | 71° |
| 2026-04-24 19:08 | 55.00761 | -6.29085 | 24103 ft | 433 kts | 70° |
| 2026-04-24 19:09 | 55.01776 | -6.24261 | 23560 ft | 429 kts | 70° |
| 2026-04-24 19:09 | 55.02799 | -6.19388 | 23019 ft | 425 kts | 70° |
| 2026-04-24 19:09 | 55.03795 | -6.14631 | 22493 ft | 420 kts | 71° |
| 2026-04-24 19:09 | 55.04783 | -6.09906 | 21956 ft | 417 kts | 71° |
| 2026-04-24 19:10 | 55.05770 | -6.05168 | 21413 ft | 413 kts | 71° |
| 2026-04-24 19:10 | 55.06735 | -6.00532 | 20882 ft | 410 kts | 71° |
| 2026-04-24 19:10 | 55.07699 | -5.95885 | 20336 ft | 407 kts | 71° |
| 2026-04-24 19:10 | 55.08659 | -5.91249 | 19787 ft | 403 kts | 71° |
| 2026-04-24 19:11 | 55.09593 | -5.86725 | 19253 ft | 400 kts | 71° |
| 2026-04-24 19:11 | 55.10534 | -5.82158 | 18701 ft | 397 kts | 71° |
| 2026-04-24 19:11 | 55.11453 | -5.77693 | 18167 ft | 394 kts | 70° |
| 2026-04-24 19:11 | 55.12372 | -5.73207 | 17628 ft | 391 kts | 70° |
| 2026-04-24 19:12 | 55.13277 | -5.68784 | 17088 ft | 388 kts | 70° |
| 2026-04-24 19:12 | 55.14172 | -5.64402 | 16556 ft | 385 kts | 70° |
| 2026-04-24 19:12 | 55.15064 | -5.60027 | 16025 ft | 382 kts | 70° |
| 2026-04-24 19:12 | 55.15947 | -5.55682 | 15487 ft | 379 kts | 70° |
| 2026-04-24 19:13 | 55.16533 | -5.52797 | 15122 ft | 377 kts | 69° |
| 2026-04-24 19:13 | 55.17681 | -5.47126 | 14438 ft | 373 kts | 69° |
| 2026-04-24 19:13 | 55.18532 | -5.42911 | 13907 ft | 370 kts | 69° |
| 2026-04-24 19:13 | 55.19387 | -5.38669 | 13378 ft | 367 kts | 69° |
| 2026-04-24 19:14 | 55.20225 | -5.34501 | 12830 ft | 363 kts | 70° |
| 2026-04-24 19:14 | 55.21048 | -5.30397 | 12353 ft | 358 kts | 70° |
| 2026-04-24 19:14 | 55.21874 | -5.26274 | 11841 ft | 356 kts | 70° |
| 2026-04-24 19:14 | 55.22679 | -5.22247 | 11319 ft | 354 kts | 70° |
| 2026-04-24 19:15 | 55.23489 | -5.18188 | 10913 ft | 349 kts | 70° |
| 2026-04-24 19:15 | 55.24266 | -5.14281 | 10837 ft | 334 kts | 70° |
| 2026-04-24 19:15 | 55.25004 | -5.10560 | 10755 ft | 320 kts | 70° |
| 2026-04-24 19:15 | 55.25723 | -5.06933 | 10627 ft | 309 kts | 69° |
| 2026-04-24 19:16 | 55.27080 | -5.00066 | 10372 ft | 288 kts | 69° |
| 2026-04-24 19:16 | 55.27719 | -4.96824 | 10224 ft | 279 kts | 69° |
| 2026-04-24 19:16 | 55.28340 | -4.93672 | 9887 ft | 274 kts | 69° |
| 2026-04-24 19:17 | 55.28956 | -4.90543 | 9514 ft | 269 kts | 69° |
| 2026-04-24 19:17 | 55.29565 | -4.87445 | 9193 ft | 265 kts | 69° |
| 2026-04-24 19:17 | 55.30158 | -4.84425 | 8864 ft | 265 kts | 69° |
| 2026-04-24 19:17 | 55.30757 | -4.81370 | 8600 ft | 261 kts | 69° |
| 2026-04-24 19:18 | 55.31244 | -4.78405 | 8537 ft | 250 kts | 82° |
| 2026-04-24 19:18 | 55.31308 | -4.75382 | 8262 ft | 250 kts | 88° |
| 2026-04-24 19:18 | 55.31302 | -4.72331 | 7984 ft | 249 kts | 89° |
| 2026-04-24 19:18 | 55.31294 | -4.69307 | 7709 ft | 249 kts | 89° |
| 2026-04-24 19:19 | 55.31290 | -4.66303 | 7507 ft | 246 kts | 89° |
| 2026-04-24 19:19 | 55.31287 | -4.63315 | 7358 ft | 242 kts | 89° |
| 2026-04-24 19:19 | 55.31282 | -4.60404 | 7250 ft | 233 kts | 89° |
| 2026-04-24 19:19 | 55.31276 | -4.57634 | 7159 ft | 224 kts | 89° |
| 2026-04-24 19:20 | 55.31265 | -4.54945 | 7055 ft | 217 kts | 89° |
| 2026-04-24 19:20 | 55.31251 | -4.52331 | 6934 ft | 208 kts | 89° |
| 2026-04-24 19:20 | 55.31238 | -4.49880 | 6835 ft | 199 kts | 89° |
| 2026-04-24 19:20 | 55.31225 | -4.47446 | 6744 ft | 201 kts | 89° |
| 2026-04-24 19:21 | 55.31211 | -4.44976 | 6640 ft | 201 kts | 89° |
| 2026-04-24 19:21 | 55.31227 | -4.42536 | 6533 ft | 200 kts | 78° |
| 2026-04-24 19:21 | 55.31805 | -4.40458 | 6394 ft | 184 kts | 44° |
| 2026-04-24 19:21 | 55.32732 | -4.39014 | 6081 ft | 175 kts | 39° |
| 2026-04-24 19:22 | 55.33646 | -4.37662 | 5695 ft | 172 kts | 39° |
| 2026-04-24 19:22 | 55.34560 | -4.36312 | 5269 ft | 171 kts | 39° |
| 2026-04-24 19:22 | 55.35460 | -4.34984 | 4842 ft | 170 kts | 39° |
| 2026-04-24 19:22 | 55.36342 | -4.33684 | 4617 ft | 158 kts | 39° |
| 2026-04-24 19:23 | 55.37173 | -4.32459 | 4100 ft | 159 kts | 39° |
| 2026-04-24 19:23 | 55.38011 | -4.31228 | 3602 ft | 157 kts | 39° |
| 2026-04-24 19:23 | 55.38914 | -4.30208 | 3480 ft | 158 kts | 13° |
| 2026-04-24 19:23 | 55.39988 | -4.30470 | 3476 ft | 158 kts | 337° |
| 2026-04-24 19:24 | 55.40950 | -4.31394 | 3467 ft | 159 kts | 323° |
| 2026-04-24 19:24 | 55.41674 | -4.32836 | 3474 ft | 160 kts | 304° |
| 2026-04-24 19:24 | 55.42259 | -4.34528 | 3479 ft | 160 kts | 302° |
| 2026-04-24 19:24 | 55.42835 | -4.36202 | 3311 ft | 161 kts | 302° |
| 2026-04-24 19:25 | 55.43414 | -4.37860 | 3064 ft | 158 kts | 303° |
| 2026-04-24 19:25 | 55.43982 | -4.39481 | 2823 ft | 156 kts | 303° |
| 2026-04-24 19:25 | 55.44547 | -4.41097 | 2585 ft | 154 kts | 302° |
| 2026-04-24 19:25 | 55.45102 | -4.42687 | 2349 ft | 155 kts | 302° |
| 2026-04-24 19:26 | 55.45664 | -4.44297 | 2109 ft | 154 kts | 301° |
| 2026-04-24 19:26 | 55.46221 | -4.45895 | 1871 ft | 153 kts | 301° |
| 2026-04-24 19:26 | 55.46774 | -4.47485 | 1630 ft | 151 kts | 301° |
| 2026-04-24 19:26 | 55.47321 | -4.49054 | 1392 ft | 151 kts | 301° |
| 2026-04-24 19:27 | 55.47862 | -4.50607 | 1156 ft | 150 kts | 301° |
| 2026-04-24 19:27 | 55.48405 | -4.52168 | 919 ft | 150 kts | 301° |
| 2026-04-24 19:27 | 55.48949 | -4.53740 | 671 ft | 150 kts | 301° |
| 2026-04-24 19:27 | 55.49486 | -4.55293 | 432 ft | 149 kts | 302° |
| 2026-04-24 19:28 | 55.50028 | -4.56836 | 200 ft | 148 kts | 301° |
| 2026-04-24 19:28 | 55.50563 | -4.58375 | 58 ft | 138 kts | 301° |
| 2026-04-24 19:28 | 55.50973 | -4.59560 | 50 ft | 88 kts | 302° |
| 2026-04-24 19:28 | 55.51198 | -4.60211 | 45 ft | 35 kts | 302° |
| 2026-04-24 19:29 | 55.51383 | -4.60746 | 49 ft | 22 kts | 302° |
| 2026-04-24 19:29 | 55.51462 | -4.60975 | 48 ft | 21 kts | 301° |
| 2026-04-24 19:29 | 55.51537 | -4.61196 | 48 ft | 20 kts | 302° |
| 2026-04-24 19:30 | 55.51600 | -4.61380 | 48 ft | 10 kts | 294° |
| 2026-04-24 19:30 | 55.51593 | -4.61492 | 48 ft | 9 kts | 239° |
| 2026-04-24 19:30 | 55.51534 | -4.61524 | 47 ft | 9 kts | 174° |
| 2026-04-24 19:30 | 55.51471 | -4.61490 | 48 ft | 9 kts | 152° |
| 2026-04-24 19:31 | 55.51422 | -4.61417 | 48 ft | 9 kts | 129° |
| 2026-04-24 19:31 | 55.51383 | -4.61326 | 48 ft | 9 kts | 123° |
| 2026-04-24 19:31 | 55.51349 | -4.61228 | 48 ft | 8 kts | 122° |
| 2026-04-24 19:31 | 55.51330 | -4.61170 | 48 ft | 5 kts | 118° |
| 2026-04-24 19:32 | 55.51309 | -4.61102 | 47 ft | 6 kts | 119° |
| 2026-04-24 19:32 | 55.51283 | -4.61032 | 47 ft | 3 kts | 143° |
| 2026-04-24 19:32 | 55.51252 | -4.61028 | 46 ft | 5 kts | 197° |
| 2026-04-24 19:32 | 55.51225 | -4.61063 | 46 ft | 4 kts | 225° |
| 2026-04-24 19:33 | 55.51210 | -4.61089 | 46 ft | 1 kts | 225° |
| 2026-04-24 19:33 | 55.51209 | -4.61090 | 45 ft | 0 kts | 225° |